sensor_id;sensor_type;location;lat;lon;timestamp;pressure;altitude;pressure_sealevel;temperature;humidity
9738;BME280;4908;47.446;13.900;2023-06-10T00:00:28;92546.00;;;11.93;100.00
9738;BME280;4908;47.446;13.900;2023-06-10T00:02:58;92549.09;;;11.92;100.00
9738;BME280;4908;47.446;13.900;2023-06-10T00:05:26;92552.97;;;11.84;100.00
9738;BME280;4908;47.446;13.900;2023-06-10T00:07:55;92549.25;;;11.70;100.00
9738;BME280;4908;47.446;13.900;2023-06-10T00:10:22;92543.91;;;11.63;100.00
9738;BME280;4908;47.446;13.900;2023-06-10T00:12:49;92539.34;;;11.57;100.00
9738;BME280;4908;47.446;13.900;2023-06-10T00:15:17;92536.69;;;11.53;100.00
9738;BME280;4908;47.446;13.900;2023-06-10T00:17:44;92535.19;;;11.45;100.00
9738;BME280;4908;47.446;13.900;2023-06-10T00:20:13;92534.06;;;11.39;100.00
9738;BME280;4908;47.446;13.900;2023-06-10T00:22:40;92538.66;;;11.39;100.00
9738;BME280;4908;47.446;13.900;2023-06-10T00:25:11;92534.84;;;11.40;100.00
9738;BME280;4908;47.446;13.900;2023-06-10T00:27:37;92537.16;;;11.38;100.00
9738;BME280;4908;47.446;13.900;2023-06-10T00:30:05;92534.16;;;11.22;100.00
9738;BME280;4908;47.446;13.900;2023-06-10T00:32:33;92534.94;;;11.19;100.00
9738;BME280;4908;47.446;13.900;2023-06-10T00:35:01;92530.75;;;11.14;100.00
9738;BME280;4908;47.446;13.900;2023-06-10T00:37:32;92541.88;;;11.09;100.00
9738;BME280;4908;47.446;13.900;2023-06-10T00:40:00;92539.19;;;11.09;100.00
9738;BME280;4908;47.446;13.900;2023-06-10T00:42:27;92534.97;;;11.12;100.00
9738;BME280;4908;47.446;13.900;2023-06-10T00:44:54;92546.78;;;11.21;100.00
9738;BME280;4908;47.446;13.900;2023-06-10T00:47:21;92531.03;;;11.34;100.00
9738;BME280;4908;47.446;13.900;2023-06-10T00:49:49;92532.56;;;11.31;100.00
9738;BME280;4908;47.446;13.900;2023-06-10T00:52:18;92539.47;;;11.32;100.00
9738;BME280;4908;47.446;13.900;2023-06-10T00:54:47;92535.25;;;11.31;100.00
9738;BME280;4908;47.446;13.900;2023-06-10T00:57:14;92540.22;;;11.36;100.00
9738;BME280;4908;47.446;13.900;2023-06-10T00:59:41;92529.44;;;11.43;100.00
9738;BME280;4908;47.446;13.900;2023-06-10T01:02:11;92534.84;;;11.40;100.00
9738;BME280;4908;47.446;13.900;2023-06-10T01:04:38;92531.75;;;11.41;100.00
9738;BME280;4908;47.446;13.900;2023-06-10T01:07:10;92533.25;;;11.49;100.00
9738;BME280;4908;47.446;13.900;2023-06-10T01:09:45;92530.25;;;11.33;100.00
9738;BME280;4908;47.446;13.900;2023-06-10T01:12:26;92533.38;;;11.28;100.00
9738;BME280;4908;47.446;13.900;2023-06-10T01:14:54;92525.34;;;11.21;100.00
9738;BME280;4908;47.446;13.900;2023-06-10T01:17:21;92534.16;;;11.22;100.00
9738;BME280;4908;47.446;13.900;2023-06-10T01:19:53;92530.75;;;11.14;100.00
9738;BME280;4908;47.446;13.900;2023-06-10T01:22:23;92525.38;;;11.14;100.00
9738;BME280;4908;47.446;13.900;2023-06-10T01:24:51;92522.72;;;11.14;100.00
9738;BME280;4908;47.446;13.900;2023-06-10T01:27:21;92525.44;;;11.00;100.00
9738;BME280;4908;47.446;13.900;2023-06-10T01:29:50;92525.09;;;10.91;100.00
9738;BME280;4908;47.446;13.900;2023-06-10T01:32:27;92532.75;;;10.89;100.00
9738;BME280;4908;47.446;13.900;2023-06-10T01:34:56;92525.88;;;10.88;100.00
9738;BME280;4908;47.446;13.900;2023-06-10T01:37:26;92520.94;;;10.76;100.00
9738;BME280;4908;47.446;13.900;2023-06-10T01:39:55;92520.59;;;10.70;100.00
9738;BME280;4908;47.446;13.900;2023-06-10T01:42:23;92522.50;;;10.70;100.00
9738;BME280;4908;47.446;13.900;2023-06-10T01:44:51;92519.03;;;10.73;100.00
9738;BME280;4908;47.446;13.900;2023-06-10T01:47:18;92529.00;;;10.69;100.00
9738;BME280;4908;47.446;13.900;2023-06-10T01:49:45;92525.19;;;10.63;100.00
9738;BME280;4908;47.446;13.900;2023-06-10T01:52:12;92528.63;;;10.67;100.00
9738;BME280;4908;47.446;13.900;2023-06-10T01:54:40;92533.97;;;10.67;100.00
9738;BME280;4908;47.446;13.900;2023-06-10T01:57:07;92535.50;;;10.61;100.00
9738;BME280;4908;47.446;13.900;2023-06-10T01:59:34;92535.91;;;10.56;100.00
9738;BME280;4908;47.446;13.900;2023-06-10T02:02:02;92536.31;;;10.51;100.00
9738;BME280;4908;47.446;13.900;2023-06-10T02:04:28;92532.88;;;10.47;100.00
9738;BME280;4908;47.446;13.900;2023-06-10T02:06:55;92535.97;;;10.35;100.00
9738;BME280;4908;47.446;13.900;2023-06-10T02:09:22;92540.53;;;10.38;100.00
9738;BME280;4908;47.446;13.900;2023-06-10T02:11:50;92542.84;;;10.43;100.00
9738;BME280;4908;47.446;13.900;2023-06-10T02:14:17;92541.31;;;10.24;100.00
9738;BME280;4908;47.446;13.900;2023-06-10T02:16:44;92533.69;;;10.19;100.00
9738;BME280;4908;47.446;13.900;2023-06-10T02:19:12;92545.13;;;10.27;100.00
9738;BME280;4908;47.446;13.900;2023-06-10T02:21:38;92544.00;;;10.31;100.00
9738;BME280;4908;47.446;13.900;2023-06-10T02:24:06;92549.75;;;10.30;100.00
9738;BME280;4908;47.446;13.900;2023-06-10T02:26:33;92545.53;;;10.29;100.00
9738;BME280;4908;47.446;13.900;2023-06-10T02:29:01;92549.34;;;10.28;100.00
9738;BME280;4908;47.446;13.900;2023-06-10T02:31:28;92551.28;;;10.10;100.00
9738;BME280;4908;47.446;13.900;2023-06-10T02:33:55;92545.13;;;9.88;100.00
9738;BME280;4908;47.446;13.900;2023-06-10T02:36:22;92548.19;;;9.93;100.00
9738;BME280;4908;47.446;13.900;2023-06-10T02:38:49;92555.06;;;9.94;100.00
9738;BME280;4908;47.446;13.900;2023-06-10T02:41:16;92556.59;;;9.92;100.00
9738;BME280;4908;47.446;13.900;2023-06-10T02:43:43;92555.44;;;9.89;100.00
9738;BME280;4908;47.446;13.900;2023-06-10T02:46:11;92552.00;;;9.71;100.00
9738;BME280;4908;47.446;13.900;2023-06-10T02:48:41;92554.25;;;9.55;100.00
9738;BME280;4908;47.446;13.900;2023-06-10T02:51:09;92553.84;;;9.46;100.00
9738;BME280;4908;47.446;13.900;2023-06-10T02:53:36;92551.94;;;9.50;100.00
9738;BME280;4908;47.446;13.900;2023-06-10T02:56:03;92548.91;;;9.55;100.00
9738;BME280;4908;47.446;13.900;2023-06-10T02:58:29;92555.00;;;9.52;100.00
9738;BME280;4908;47.446;13.900;2023-06-10T03:00:56;92558.44;;;9.42;100.00
9738;BME280;4908;47.446;13.900;2023-06-10T03:03:25;92561.50;;;9.51;100.00
9738;BME280;4908;47.446;13.900;2023-06-10T03:05:53;92556.53;;;9.60;100.00
9738;BME280;4908;47.446;13.900;2023-06-10T03:08:19;92548.13;;;9.62;100.00
9738;BME280;4908;47.446;13.900;2023-06-10T03:10:46;92547.41;;;9.61;100.00
9738;BME280;4908;47.446;13.900;2023-06-10T03:13:13;92552.75;;;9.68;100.00
9738;BME280;4908;47.446;13.900;2023-06-10T03:15:40;92550.44;;;9.77;100.00
9738;BME280;4908;47.446;13.900;2023-06-10T03:18:07;92555.03;;;9.56;100.00
9738;BME280;4908;47.446;13.900;2023-06-10T03:20:35;92552.75;;;9.61;100.00
9738;BME280;4908;47.446;13.900;2023-06-10T03:23:04;92551.97;;;9.68;100.00
9738;BME280;4908;47.446;13.900;2023-06-10T03:25:31;92548.94;;;9.69;100.00
9738;BME280;4908;47.446;13.900;2023-06-10T03:27:58;92547.75;;;9.42;100.00
9738;BME280;4908;47.446;13.900;2023-06-10T03:30:25;92546.88;;;9.07;100.00
9738;BME280;4908;47.446;13.900;2023-06-10T03:32:52;92548.75;;;8.95;100.00
9738;BME280;4908;47.446;13.900;2023-06-10T03:35:18;92554.91;;;9.17;100.00
9738;BME280;4908;47.446;13.900;2023-06-10T03:37:47;92557.25;;;9.33;100.00
9738;BME280;4908;47.446;13.900;2023-06-10T03:40:14;92559.56;;;9.45;100.00
9738;BME280;4908;47.446;13.900;2023-06-10T03:42:41;92562.66;;;9.57;100.00
9738;BME280;4908;47.446;13.900;2023-06-10T03:45:10;92569.56;;;9.65;100.00
9738;BME280;4908;47.446;13.900;2023-06-10T03:47:37;92574.13;;;9.75;100.00
9738;BME280;4908;47.446;13.900;2023-06-10T03:50:06;92574.16;;;9.79;100.00
9738;BME280;4908;47.446;13.900;2023-06-10T03:52:34;92572.63;;;9.81;100.00
9738;BME280;4908;47.446;13.900;2023-06-10T03:55:03;92574.94;;;9.83;100.00
9738;BME280;4908;47.446;13.900;2023-06-10T03:57:30;92576.44;;;9.84;100.00
9738;BME280;4908;47.446;13.900;2023-06-10T03:59:57;92578.75;;;9.92;100.00
9738;BME280;4908;47.446;13.900;2023-06-10T04:02:24;92579.91;;;9.99;100.00
9738;BME280;4908;47.446;13.900;2023-06-10T04:04:51;92577.22;;;10.09;100.00
9738;BME280;4908;47.446;13.900;2023-06-10T04:07:17;92577.63;;;10.04;100.00
9738;BME280;4908;47.446;13.900;2023-06-10T04:09:45;92579.88;;;9.95;100.00
9738;BME280;4908;47.446;13.900;2023-06-10T04:12:14;92581.03;;;10.01;100.00
9738;BME280;4908;47.446;13.900;2023-06-10T04:14:42;92576.47;;;9.94;100.00
9738;BME280;4908;47.446;13.900;2023-06-10T04:17:08;92568.06;;;9.96;100.00
9738;BME280;4908;47.446;13.900;2023-06-10T04:19:36;92575.34;;;10.10;100.00
9738;BME280;4908;47.446;13.900;2023-06-10T04:22:03;92575.72;;;10.08;100.00
9738;BME280;4908;47.446;13.900;2023-06-10T04:24:30;92574.94;;;10.08;100.00
9738;BME280;4908;47.446;13.900;2023-06-10T04:26:57;92563.88;;;10.20;100.00
9738;BME280;4908;47.446;13.900;2023-06-10T04:29:25;92572.66;;;10.41;100.00
9738;BME280;4908;47.446;13.900;2023-06-10T04:31:52;92565.72;;;10.65;100.00
9738;BME280;4908;47.446;13.900;2023-06-10T04:34:19;92566.13;;;10.63;100.00
9738;BME280;4908;47.446;13.900;2023-06-10T04:36:45;92572.59;;;10.73;100.00
9738;BME280;4908;47.446;13.900;2023-06-10T04:39:13;92563.34;;;10.99;100.00
9738;BME280;4908;47.446;13.900;2023-06-10T04:41:42;92568.69;;;11.09;100.00
9738;BME280;4908;47.446;13.900;2023-06-10T04:44:08;92571.00;;;11.00;100.00
9738;BME280;4908;47.446;13.900;2023-06-10T04:46:37;92575.53;;;11.14;100.00
9738;BME280;4908;47.446;13.900;2023-06-10T04:49:04;92579.31;;;11.30;100.00
9738;BME280;4908;47.446;13.900;2023-06-10T04:51:31;92567.06;;;11.26;100.00
9738;BME280;4908;47.446;13.900;2023-06-10T04:53:58;92563.97;;;11.31;100.00
9738;BME280;4908;47.446;13.900;2023-06-10T04:56:27;92567.84;;;11.23;100.00
9738;BME280;4908;47.446;13.900;2023-06-10T04:58:55;92569.28;;;11.41;100.00
9738;BME280;4908;47.446;13.900;2023-06-10T05:01:22;92573.81;;;11.58;100.00
9738;BME280;4908;47.446;13.900;2023-06-10T05:03:50;92569.13;;;11.77;100.00
9738;BME280;4908;47.446;13.900;2023-06-10T05:06:17;92568.69;;;11.89;100.00
9738;BME280;4908;47.446;13.900;2023-06-10T05:08:44;92568.63;;;11.96;100.00
9738;BME280;4908;47.446;13.900;2023-06-10T05:11:10;92577.41;;;12.00;100.00
9738;BME280;4908;47.446;13.900;2023-06-10T05:13:37;92570.94;;;11.94;100.00
9738;BME280;4908;47.446;13.900;2023-06-10T05:16:05;92567.75;;;12.09;100.00
9738;BME280;4908;47.446;13.900;2023-06-10T05:18:33;92568.44;;;12.20;100.00
9738;BME280;4908;47.446;13.900;2023-06-10T05:21:02;92568.72;;;12.33;100.00
9738;BME280;4908;47.446;13.900;2023-06-10T05:23:29;92572.56;;;12.32;100.00
9738;BME280;4908;47.446;13.900;2023-06-10T05:25:55;92564.81;;;12.41;100.00
9738;BME280;4908;47.446;13.900;2023-06-10T05:28:22;92568.47;;;12.61;100.00
9738;BME280;4908;47.446;13.900;2023-06-10T05:30:49;92571.50;;;12.67;100.00
9738;BME280;4908;47.446;13.900;2023-06-10T05:33:16;92565.28;;;12.73;100.00
9738;BME280;4908;47.446;13.900;2023-06-10T05:35:43;92561.88;;;12.69;100.00
9738;BME280;4908;47.446;13.900;2023-06-10T05:38:11;92562.97;;;12.75;100.00
9738;BME280;4908;47.446;13.900;2023-06-10T05:40:37;92568.94;;;12.93;100.00
9738;BME280;4908;47.446;13.900;2023-06-10T05:43:04;92559.63;;;13.01;100.00
9738;BME280;4908;47.446;13.900;2023-06-10T05:45:31;92549.59;;;13.09;100.00
9738;BME280;4908;47.446;13.900;2023-06-10T05:47:58;92555.59;;;13.20;100.00
9738;BME280;4908;47.446;13.900;2023-06-10T05:50:24;92555.47;;;13.30;100.00
9738;BME280;4908;47.446;13.900;2023-06-10T05:52:51;92555.78;;;13.36;100.00
9738;BME280;4908;47.446;13.900;2023-06-10T05:55:20;92558.38;;;13.43;100.00
9738;BME280;4908;47.446;13.900;2023-06-10T05:57:47;92556.66;;;13.60;100.00
9738;BME280;4908;47.446;13.900;2023-06-10T06:00:14;92562.38;;;13.62;100.00
9738;BME280;4908;47.446;13.900;2023-06-10T06:02:41;92563.22;;;13.55;100.00
9738;BME280;4908;47.446;13.900;2023-06-10T06:05:08;92560.34;;;13.69;100.00
9738;BME280;4908;47.446;13.900;2023-06-10T06:07:35;92555.47;;;13.61;100.00
9738;BME280;4908;47.446;13.900;2023-06-10T06:10:02;92556.19;;;13.65;100.00
9738;BME280;4908;47.446;13.900;2023-06-10T06:12:30;92565.56;;;13.80;100.00
9738;BME280;4908;47.446;13.900;2023-06-10T06:14:57;92561.78;;;14.04;100.00
9738;BME280;4908;47.446;13.900;2023-06-10T06:17:24;92557.34;;;14.17;100.00
9738;BME280;4908;47.446;13.900;2023-06-10T06:19:50;92557.94;;;14.31;100.00
9738;BME280;4908;47.446;13.900;2023-06-10T06:22:17;92560.09;;;14.40;100.00
9738;BME280;4908;47.446;13.900;2023-06-10T06:24:46;92559.28;;;14.43;100.00
9738;BME280;4908;47.446;13.900;2023-06-10T06:27:14;92562.03;;;14.40;100.00
9738;BME280;4908;47.446;13.900;2023-06-10T06:29:43;92554.00;;;14.36;100.00
9738;BME280;4908;47.446;13.900;2023-06-10T06:32:09;92555.66;;;14.53;100.00
9738;BME280;4908;47.446;13.900;2023-06-10T06:34:36;92561.63;;;14.64;100.00
9738;BME280;4908;47.446;13.900;2023-06-10T06:37:03;92560.09;;;14.86;100.00
9738;BME280;4908;47.446;13.900;2023-06-10T06:39:30;92565.50;;;14.86;100.00
9738;BME280;4908;47.446;13.900;2023-06-10T06:41:57;92552.91;;;14.99;100.00
9738;BME280;4908;47.446;13.900;2023-06-10T06:44:23;92555.81;;;15.08;100.00
9738;BME280;4908;47.446;13.900;2023-06-10T06:46:52;92559.22;;;15.32;100.00
9738;BME280;4908;47.446;13.900;2023-06-10T06:49:18;92551.97;;;15.49;100.00
9738;BME280;4908;47.446;13.900;2023-06-10T06:51:45;92547.03;;;15.63;100.00
9738;BME280;4908;47.446;13.900;2023-06-10T06:54:12;92558.53;;;15.67;100.00
9738;BME280;4908;47.446;13.900;2023-06-10T06:56:39;92552.06;;;15.81;100.00
9738;BME280;4908;47.446;13.900;2023-06-10T06:59:05;92540.97;;;15.95;100.00
9738;BME280;4908;47.446;13.900;2023-06-10T07:01:33;92553.78;;;16.07;100.00
9738;BME280;4908;47.446;13.900;2023-06-10T07:04:01;92552.38;;;16.18;100.00
9738;BME280;4908;47.446;13.900;2023-06-10T07:06:28;92549.09;;;16.27;100.00
9738;BME280;4908;47.446;13.900;2023-06-10T07:08:54;92549.59;;;16.38;100.00
9738;BME280;4908;47.446;13.900;2023-06-10T07:11:21;92556.53;;;16.39;100.00
9738;BME280;4908;47.446;13.900;2023-06-10T07:13:48;92554.16;;;16.25;100.00
9738;BME280;4908;47.446;13.900;2023-06-10T07:16:15;92553.50;;;16.37;100.00
9738;BME280;4908;47.446;13.900;2023-06-10T07:18:41;92546.84;;;16.42;100.00
9738;BME280;4908;47.446;13.900;2023-06-10T07:21:09;92553.50;;;16.69;100.00
9738;BME280;4908;47.446;13.900;2023-06-10T07:23:36;92546.72;;;16.77;100.00
9738;BME280;4908;47.446;13.900;2023-06-10T07:26:03;92543.25;;;16.77;100.00
9738;BME280;4908;47.446;13.900;2023-06-10T07:28:30;92546.84;;;17.02;100.00
9738;BME280;4908;47.446;13.900;2023-06-10T07:30:57;92534.78;;;17.20;100.00
9738;BME280;4908;47.446;13.900;2023-06-10T07:33:29;92538.31;;;17.33;100.00
9738;BME280;4908;47.446;13.900;2023-06-10T07:49:35;92536.84;;;18.11;100.00
9738;BME280;4908;47.446;13.900;2023-06-10T07:52:57;92530.25;;;18.24;100.00
9738;BME280;4908;47.446;13.900;2023-06-10T07:55:45;92528.72;;;18.36;100.00
9738;BME280;4908;47.446;13.900;2023-06-10T07:58:12;92535.19;;;18.63;100.00
9738;BME280;4908;47.446;13.900;2023-06-10T08:00:39;92527.63;;;18.58;100.00
9738;BME280;4908;47.446;13.900;2023-06-10T08:03:07;92528.47;;;18.68;100.00
9738;BME280;4908;47.446;13.900;2023-06-10T08:05:35;92528.22;;;18.88;100.00
9738;BME280;4908;47.446;13.900;2023-06-10T08:08:02;92518.56;;;18.87;100.00
9738;BME280;4908;47.446;13.900;2023-06-10T08:10:28;92523.81;;;19.03;100.00
9738;BME280;4908;47.446;13.900;2023-06-10T08:12:55;92523.19;;;19.33;100.00
9738;BME280;4908;47.446;13.900;2023-06-10T08:15:22;92525.97;;;19.63;100.00
9738;BME280;4908;47.446;13.900;2023-06-10T08:17:48;92528.28;;;19.74;100.00
9738;BME280;4908;47.446;13.900;2023-06-10T08:20:15;92523.88;;;19.98;100.00
9738;BME280;4908;47.446;13.900;2023-06-10T08:22:44;92526.06;;;20.12;100.00
9738;BME280;4908;47.446;13.900;2023-06-10T08:25:11;92526.81;;;20.43;100.00
9738;BME280;4908;47.446;13.900;2023-06-10T08:27:37;92536.56;;;20.63;100.00
9738;BME280;4908;47.446;13.900;2023-06-10T08:30:05;92523.81;;;20.50;95.95
9738;BME280;4908;47.446;13.900;2023-06-10T08:32:33;92537.50;;;20.78;96.85
9738;BME280;4908;47.446;13.900;2023-06-10T08:35:00;92531.41;;;20.65;95.15
9738;BME280;4908;47.446;13.900;2023-06-10T08:37:26;92535.63;;;20.66;100.00
9738;BME280;4908;47.446;13.900;2023-06-10T08:39:54;92525.84;;;20.77;100.00
9738;BME280;4908;47.446;13.900;2023-06-10T08:42:23;92527.38;;;20.78;99.22
9738;BME280;4908;47.446;13.900;2023-06-10T08:44:53;92531.56;;;20.70;97.85
9738;BME280;4908;47.446;13.900;2023-06-10T08:47:23;92533.44;;;20.82;100.00
9738;BME280;4908;47.446;13.900;2023-06-10T08:49:50;92526.19;;;20.88;100.00
9738;BME280;4908;47.446;13.900;2023-06-10T08:52:20;92533.03;;;21.11;99.32
9738;BME280;4908;47.446;13.900;2023-06-10T08:54:52;92530.91;;;21.06;98.34
9738;BME280;4908;47.446;13.900;2023-06-10T08:57:22;92525.47;;;21.24;100.00
9738;BME280;4908;47.446;13.900;2023-06-10T08:59:49;92536.38;;;21.42;100.00
9738;BME280;4908;47.446;13.900;2023-06-10T09:02:16;92528.94;;;21.24;100.00
9738;BME280;4908;47.446;13.900;2023-06-10T09:04:46;92525.47;;;21.42;100.00
9738;BME280;4908;47.446;13.900;2023-06-10T09:07:13;92532.13;;;21.50;96.25
9738;BME280;4908;47.446;13.900;2023-06-10T09:09:42;92518.50;;;21.59;93.30
9738;BME280;4908;47.446;13.900;2023-06-10T09:12:10;92523.94;;;21.59;95.78
9738;BME280;4908;47.446;13.900;2023-06-10T09:14:38;92517.44;;;21.66;93.60
9738;BME280;4908;47.446;13.900;2023-06-10T09:17:05;92526.38;;;21.48;92.90
9738;BME280;4908;47.446;13.900;2023-06-10T09:19:32;92527.59;;;21.38;98.16
9738;BME280;4908;47.446;13.900;2023-06-10T09:21:59;92525.59;;;21.66;99.01
9738;BME280;4908;47.446;13.900;2023-06-10T09:24:27;92531.53;;;21.37;95.01
9738;BME280;4908;47.446;13.900;2023-06-10T09:27:02;92523.66;;;21.12;97.88
9738;BME280;4908;47.446;13.900;2023-06-10T09:29:30;92531.38;;;21.31;97.90
9738;BME280;4908;47.446;13.900;2023-06-10T09:31:58;92533.50;;;21.55;98.85
9738;BME280;4908;47.446;13.900;2023-06-10T09:34:25;92535.78;;;21.29;96.48
9738;BME280;4908;47.446;13.900;2023-06-10T09:36:53;92539.09;;;21.42;98.51
9738;BME280;4908;47.446;13.900;2023-06-10T09:39:21;92530.91;;;21.60;97.41
9738;BME280;4908;47.446;13.900;2023-06-10T09:41:48;92533.31;;;21.67;97.49
9738;BME280;4908;47.446;13.900;2023-06-10T09:44:16;92531.81;;;21.75;95.72
9738;BME280;4908;47.446;13.900;2023-06-10T09:46:45;92532.13;;;21.68;95.67
9738;BME280;4908;47.446;13.900;2023-06-10T09:49:14;92525.09;;;22.03;95.12
9738;BME280;4908;47.446;13.900;2023-06-10T09:51:49;92525.03;;;22.21;96.14
9738;BME280;4908;47.446;13.900;2023-06-10T09:54:17;92527.88;;;22.36;96.27
9738;BME280;4908;47.446;13.900;2023-06-10T09:56:46;92521.59;;;22.54;92.22
9738;BME280;4908;47.446;13.900;2023-06-10T09:59:13;92521.59;;;22.54;89.84
9738;BME280;4908;47.446;13.900;2023-06-10T10:01:40;92531.09;;;22.25;89.17
9738;BME280;4908;47.446;13.900;2023-06-10T10:04:09;92513.97;;;22.25;95.49
9738;BME280;4908;47.446;13.900;2023-06-10T10:06:38;92509.81;;;22.39;94.03
9738;BME280;4908;47.446;13.900;2023-06-10T10:09:06;92518.84;;;22.54;88.41
9738;BME280;4908;47.446;13.900;2023-06-10T10:11:34;92516.34;;;22.74;90.55
9738;BME280;4908;47.446;13.900;2023-06-10T10:14:03;92520.03;;;22.62;89.62
9738;BME280;4908;47.446;13.900;2023-06-10T10:16:35;92518.78;;;22.72;85.98
9738;BME280;4908;47.446;13.900;2023-06-10T10:19:07;92511.44;;;22.87;88.97
9738;BME280;4908;47.446;13.900;2023-06-10T10:21:40;92508.63;;;22.96;85.48
9738;BME280;4908;47.446;13.900;2023-06-10T10:24:14;92519.31;;;22.85;82.67
9738;BME280;4908;47.446;13.900;2023-06-10T10:26:43;92516.16;;;23.01;83.90
9738;BME280;4908;47.446;13.900;2023-06-10T10:29:17;92515.59;;;22.97;81.91
9738;BME280;4908;47.446;13.900;2023-06-10T10:31:48;92513.91;;;23.23;84.83
9738;BME280;4908;47.446;13.900;2023-06-10T10:34:19;92509.13;;;23.09;82.39
9738;BME280;4908;47.446;13.900;2023-06-10T10:36:50;92503.34;;;23.16;81.80
9738;BME280;4908;47.446;13.900;2023-06-10T10:39:17;92500.22;;;23.47;83.33
9738;BME280;4908;47.446;13.900;2023-06-10T10:41:45;92498.25;;;23.76;81.81
9738;BME280;4908;47.446;13.900;2023-06-10T10:44:13;92494.69;;;23.70;74.00
9738;BME280;4908;47.446;13.900;2023-06-10T10:46:44;92496.84;;;23.81;73.49
9738;BME280;4908;47.446;13.900;2023-06-10T10:49:12;92496.19;;;23.57;76.31
9738;BME280;4908;47.446;13.900;2023-06-10T10:51:57;92499.88;;;23.68;72.71
9738;BME280;4908;47.446;13.900;2023-06-10T10:54:33;92493.84;;;23.93;75.63
9738;BME280;4908;47.446;13.900;2023-06-10T10:57:10;92496.09;;;24.39;69.86
9738;BME280;4908;47.446;13.900;2023-06-10T10:59:53;92502.88;;;24.58;61.13
9738;BME280;4908;47.446;13.900;2023-06-10T11:02:37;92497.22;;;24.47;62.86
9738;BME280;4908;47.446;13.900;2023-06-10T11:05:09;92495.09;;;24.71;62.91
9738;BME280;4908;47.446;13.900;2023-06-10T11:07:38;92497.34;;;24.87;60.77
9738;BME280;4908;47.446;13.900;2023-06-10T11:10:08;92502.66;;;24.76;64.22
9738;BME280;4908;47.446;13.900;2023-06-10T11:12:41;92501.47;;;24.48;61.68
9738;BME280;4908;47.446;13.900;2023-06-10T11:15:08;92497.97;;;24.47;63.51
9738;BME280;4908;47.446;13.900;2023-06-10T11:17:35;92501.75;;;24.50;64.73
9738;BME280;4908;47.446;13.900;2023-06-10T11:20:03;92509.59;;;24.28;66.85
9738;BME280;4908;47.446;13.900;2023-06-10T11:22:30;92499.97;;;23.88;66.93
9738;BME280;4908;47.446;13.900;2023-06-10T11:24:59;92498.31;;;23.38;73.33
9738;BME280;4908;47.446;13.900;2023-06-10T11:27:25;92494.47;;;23.21;76.82
9738;BME280;4908;47.446;13.900;2023-06-10T11:30:17;92498.00;;;22.98;77.67
9738;BME280;4908;47.446;13.900;2023-06-10T11:32:45;92502.56;;;23.15;82.81
9738;BME280;4908;47.446;13.900;2023-06-10T11:35:12;92497.50;;;23.23;82.27
9738;BME280;4908;47.446;13.900;2023-06-10T11:37:38;92497.44;;;23.32;75.85
9738;BME280;4908;47.446;13.900;2023-06-10T11:40:09;92498.69;;;23.31;70.06
9738;BME280;4908;47.446;13.900;2023-06-10T11:42:39;92500.25;;;23.23;74.03
9738;BME280;4908;47.446;13.900;2023-06-10T11:45:07;92495.28;;;23.36;69.36
9738;BME280;4908;47.446;13.900;2023-06-10T11:47:34;92499.09;;;23.53;71.21
9738;BME280;4908;47.446;13.900;2023-06-10T11:50:01;92507.81;;;23.66;76.72
9738;BME280;4908;47.446;13.900;2023-06-10T11:52:28;92505.53;;;23.79;67.96
9738;BME280;4908;47.446;13.900;2023-06-10T11:54:57;92502.97;;;23.23;78.71
9738;BME280;4908;47.446;13.900;2023-06-10T11:57:25;92504.88;;;21.68;98.81
9738;BME280;4908;47.446;13.900;2023-06-10T11:59:52;92510.63;;;21.07;100.00
9738;BME280;4908;47.446;13.900;2023-06-10T12:02:19;92504.06;;;20.77;100.00
9738;BME280;4908;47.446;13.900;2023-06-10T12:04:47;92502.41;;;20.71;100.00
9738;BME280;4908;47.446;13.900;2023-06-10T12:07:17;92503.91;;;20.63;100.00
9738;BME280;4908;47.446;13.900;2023-06-10T12:09:45;92494.50;;;20.54;100.00
9738;BME280;4908;47.446;13.900;2023-06-10T12:12:12;92503.63;;;20.79;100.00
9738;BME280;4908;47.446;13.900;2023-06-10T12:14:54;92495.50;;;21.33;100.00
9738;BME280;4908;47.446;13.900;2023-06-10T12:17:22;92500.34;;;21.56;100.00
9738;BME280;4908;47.446;13.900;2023-06-10T12:19:49;92503.97;;;21.53;100.00
9738;BME280;4908;47.446;13.900;2023-06-10T12:22:16;92505.75;;;21.83;100.00
9738;BME280;4908;47.446;13.900;2023-06-10T12:24:45;92500.34;;;22.16;100.00
9738;BME280;4908;47.446;13.900;2023-06-10T12:27:12;92501.72;;;22.20;100.00
9738;BME280;4908;47.446;13.900;2023-06-10T12:29:39;92494.13;;;22.24;100.00
9738;BME280;4908;47.446;13.900;2023-06-10T12:32:08;92498.28;;;22.44;100.00
9738;BME280;4908;47.446;13.900;2023-06-10T12:34:37;92497.75;;;22.31;100.00
9738;BME280;4908;47.446;13.900;2023-06-10T12:37:05;92492.53;;;22.33;100.00
9738;BME280;4908;47.446;13.900;2023-06-10T12:39:33;92493.97;;;22.19;100.00
9738;BME280;4908;47.446;13.900;2023-06-10T12:42:01;92494.41;;;21.76;100.00
9738;BME280;4908;47.446;13.900;2023-06-10T12:44:32;92496.66;;;21.95;100.00
9738;BME280;4908;47.446;13.900;2023-06-10T12:46:59;92489.19;;;22.05;100.00
9738;BME280;4908;47.446;13.900;2023-06-10T12:49:28;92490.53;;;22.09;100.00
9738;BME280;4908;47.446;13.900;2023-06-10T12:51:54;92487.06;;;22.00;100.00
9738;BME280;4908;47.446;13.900;2023-06-10T12:54:21;92490.25;;;21.98;100.00
9738;BME280;4908;47.446;13.900;2023-06-10T12:56:48;92486.03;;;21.88;100.00
9738;BME280;4908;47.446;13.900;2023-06-10T12:59:15;92488.34;;;21.63;100.00
9738;BME280;4908;47.446;13.900;2023-06-10T13:01:42;92480.81;;;21.30;100.00
9738;BME280;4908;47.446;13.900;2023-06-10T13:04:09;92492.47;;;21.40;100.00
9738;BME280;4908;47.446;13.900;2023-06-10T13:06:37;92481.28;;;21.29;100.00
9738;BME280;4908;47.446;13.900;2023-06-10T13:09:05;92493.09;;;21.26;100.00
9738;BME280;4908;47.446;13.900;2023-06-10T13:11:34;92495.50;;;21.15;100.00
9738;BME280;4908;47.446;13.900;2023-06-10T13:14:02;92491.88;;;21.09;100.00
9738;BME280;4908;47.446;13.900;2023-06-10T13:16:30;92496.69;;;20.87;100.00
9738;BME280;4908;47.446;13.900;2023-06-10T13:18:57;92488.50;;;20.78;100.00
9738;BME280;4908;47.446;13.900;2023-06-10T13:21:24;92493.06;;;20.81;100.00
9738;BME280;4908;47.446;13.900;2023-06-10T13:23:52;92491.66;;;20.67;100.00